Feni, Bangladesh

9:27 AM BDT on October 26, 2014 (GMT +0600)
M.A. Hannan International | Change Station
CLOSE
Current Station
Airport
Location: Chittagong,
Elevation: 13 ft
Nearby Weather Stations

Elev 13 ft 22.27 °N, 91.82 °E | Updated 37 minutes ago

Haze
Haze
82 °F
Feels Like 90 °F
N
0
Wind Variable Wind from North

Today
High -- | Low -- °F
--% Chance of Precip.
Yesterday
High -- | Low -- °F
Precip. -- in
5:55 AM 5:20 PM
Waxing Crescent, 5% visible
Pressure 29.92 in
Visibility 2.5 miles
Clouds Few 12000 ft
Scattered Clouds 30000 ft
Heat Index 90 °F
Dew Point 75 °F
Humidity 79%
Rainfall 0.00 in
Snow Depth Not available.
UV 5 out of 12
Pollen Not available.
Air Quality Not available.
Flu Activity Not available.
METAR VGEG 260250Z 00000KT 4000 HZ FEW120 SCT300 28/24 Q1013 NOSIG

More Conditions Fewer Conditions

Pressure 29.92 in
Visibility 2.5 miles
Clouds Few 12000 ft
Scattered Clouds 30000 ft
Heat Index 90 °F
Dew Point 75 °F
Humidity 79%
Rainfall 0.00 in
Snow Depth Not available.
UV 5 out of 12
Pollen Not available.
Air Quality Not available.
Flu Activity Not available.
METAR VGEG 260250Z 00000KT 4000 HZ FEW120 SCT300 28/24 Q1013 NOSIG

More Conditions Fewer Conditions

10-Day Weather Forecast

Almanac

Astronomy

Oct. 26, 2014 Rise Set
Actual Time 5:55 AM BDT 5:20 PM BDT
Civil Twilight 5:32 AM BDT 5:43 PM BDT
Nautical Twilight 5:06 AM BDT 6:09 PM BDT
Astronomical Twilight 4:40 AM BDT 6:36 PM BDT
Moon 7:54 AM BDT 7:17 PM BDT
Length of Visible Light 12h 10m
Length of Day
11h 24m
Tomorrow will be 1m 12s shorter.
Waxing Crescent, 5% of the Moon is Illuminated
Oct 25
Waxing Crescent
Oct 30
First Quarter
Nov 6
Full
Nov 14
Last Quarter
Nov 22
New

Yesterday's Extremes

Country Highs Country Lows

Community

WunderPhotos

Upload Photos

1,765,095 photos uploaded!

Nearby

Snow Depth

Not available.

Earthquake Activity

City Distance Mag. Time & Date
No recent earthquake activity has been reported nearby.
Minimum magnitude displayed is 2.5.

Coastal Water Temperatures

Place Temperature
No Stations Reporting

Nearby Weather Stations